Terminal Aerodrome Forecast
Issued by NWS

Home | Current Version | Previous Version | Text Only | Print | Product List | Glossary On
Versions: 1 2 3 4 5 6 7 8 9 10 11 12 13 14
000
FTUS42 KMLB 111100
TAFLEE
TAF
KLEE 111140Z 1112/1212 12003KT P6SM SCT120 BKN250
     FM111400 17004KT P6SM SCT025 SCT250
     FM112000 14007KT P6SM VCTS SCT040CB BKN100 BKN250
      TEMPO 1120/1123 3SM TSRA BKN020CB OVC040
     FM120200 12003KT P6SM SCT100 BKN250=

USA.gov is the U.S. government's official web portal to all federal, state and local government web resources and services.